createdAt,value
2023-11-30T00:00:31.024Z,31.00
2023-11-30T00:01:33.492Z,30.75
2023-11-30T00:02:35.130Z,32.50
2023-11-30T00:03:38.955Z,32.00
2023-11-30T00:04:40.438Z,31.00
2023-11-30T00:05:42.857Z,30.25
2023-11-30T00:06:44.296Z,26.25
2023-11-30T00:07:46.878Z,31.25
2023-11-30T00:08:48.374Z,30.00
2023-11-30T00:09:49.819Z,27.75
2023-11-30T00:10:52.246Z,26.75
2023-11-30T00:11:53.717Z,31.50
2023-11-30T00:12:56.277Z,27.25
2023-11-30T00:13:57.800Z,32.00
2023-11-30T00:14:59.289Z,26.75
2023-11-30T00:16:01.754Z,30.50
2023-11-30T00:17:03.363Z,29.00
2023-11-30T00:18:05.409Z,32.00
2023-11-30T00:19:09.219Z,27.75
2023-11-30T00:20:12.113Z,25.00
2023-11-30T00:21:14.667Z,30.00
2023-11-30T00:22:16.172Z,30.25
2023-11-30T00:23:18.696Z,29.50
2023-11-30T00:24:20.183Z,25.50
2023-11-30T00:25:22.633Z,31.00
2023-11-30T00:26:24.110Z,25.25
2023-11-30T00:27:26.617Z,31.00
2023-11-30T00:28:28.231Z,31.25
2023-11-30T00:29:30.640Z,27.25
2023-11-30T00:30:32.237Z,42.50
2023-11-30T00:31:34.710Z,30.25
2023-11-30T00:32:38.046Z,32.75
2023-11-30T00:33:40.602Z,31.75
2023-11-30T00:34:43.404Z,35.75
2023-11-30T00:35:45.875Z,35.75
2023-11-30T00:36:47.313Z,34.00
2023-11-30T00:37:49.718Z,34.75
2023-11-30T00:38:51.491Z,35.50
2023-11-30T00:39:54.206Z,27.00
2023-11-30T00:40:55.685Z,33.00
2023-11-30T00:41:58.212Z,27.75
2023-11-30T00:42:59.787Z,30.75
2023-11-30T00:44:02.344Z,31.50
2023-11-30T00:45:04.194Z,30.00
2023-11-30T00:46:09.867Z,28.75
2023-11-30T00:47:11.667Z,33.00
2023-11-30T00:48:14.189Z,27.25
2023-11-30T00:49:16.151Z,28.00
2023-11-30T00:50:19.922Z,32.25
2023-11-30T00:51:21.432Z,31.50
2023-11-30T00:52:23.869Z,27.75
2023-11-30T00:53:25.329Z,30.75
2023-11-30T00:54:27.820Z,31.50
2023-11-30T00:55:29.349Z,30.50
2023-11-30T00:56:31.764Z,31.50
2023-11-30T00:57:33.241Z,28.00
2023-11-30T00:58:35.726Z,32.50
2023-11-30T00:59:38.323Z,39.75
2023-11-30T01:00:40.741Z,32.50
2023-11-30T01:01:42.321Z,43.00
2023-11-30T01:02:44.820Z,46.25
2023-11-30T01:03:46.377Z,42.25
2023-11-30T01:04:49.052Z,43.50
2023-11-30T01:05:51.871Z,38.25
2023-11-30T01:06:54.284Z,35.75
2023-11-30T01:07:55.770Z,36.25
2023-11-30T01:08:58.207Z,36.50
2023-11-30T01:09:59.785Z,34.50
2023-11-30T01:11:03.661Z,34.50
2023-11-30T01:12:05.665Z,35.00
2023-11-30T01:13:08.072Z,33.00
2023-11-30T01:14:09.519Z,31.50
2023-11-30T01:15:12.258Z,32.25
2023-11-30T01:16:13.719Z,32.25
2023-11-30T01:17:16.213Z,30.75
2023-11-30T01:18:17.874Z,25.50
2023-11-30T01:19:20.359Z,30.75
2023-11-30T01:20:22.279Z,31.25
2023-11-30T01:21:26.048Z,32.00
2023-11-30T01:22:27.502Z,25.50
2023-11-30T01:23:29.985Z,28.75
2023-11-30T01:24:31.618Z,29.50
2023-11-30T01:25:34.232Z,25.75
2023-11-30T01:26:35.646Z,28.25
2023-11-30T01:27:38.084Z,26.75
2023-11-30T01:28:40.036Z,26.00
2023-11-30T01:29:42.525Z,28.25
2023-11-30T01:30:44.246Z,29.75
2023-11-30T01:31:46.662Z,24.00
2023-11-30T01:32:48.275Z,29.25
2023-11-30T01:33:51.038Z,32.00
2023-11-30T01:34:52.490Z,37.75
2023-11-30T01:35:55.233Z,31.50
2023-11-30T01:36:58.108Z,31.75
2023-11-30T01:38:00.522Z,35.50
2023-11-30T01:39:01.988Z,39.75
2023-11-30T01:40:04.645Z,31.25
2023-11-30T01:41:06.864Z,35.00
2023-11-30T01:42:09.374Z,34.00
2023-11-30T01:43:10.839Z,33.00
2023-11-30T01:44:13.329Z,31.50
2023-11-30T01:45:14.898Z,27.75
2023-11-30T01:46:16.527Z,31.50
2023-11-30T01:47:18.961Z,32.50
2023-11-30T01:48:20.521Z,29.50
2023-11-30T01:49:23.014Z,31.25
2023-11-30T01:50:24.507Z,33.50
2023-11-30T01:51:27.175Z,33.25
2023-11-30T01:52:30.006Z,33.25
2023-11-30T01:53:32.426Z,35.00
2023-11-30T01:54:33.917Z,28.50
2023-11-30T01:55:36.344Z,31.25
2023-11-30T01:56:38.065Z,27.00
2023-11-30T01:57:40.474Z,31.25
2023-11-30T01:58:41.900Z,32.25
2023-11-30T01:59:44.705Z,31.75
2023-11-30T02:00:46.243Z,29.25
2023-11-30T02:01:49.052Z,31.25
2023-11-30T02:02:50.569Z,27.50
2023-11-30T02:03:52.233Z,30.75
2023-11-30T02:04:54.827Z,25.50
2023-11-30T02:05:56.318Z,28.75
2023-11-30T02:06:58.872Z,29.75
2023-11-30T02:08:01.984Z,33.75
2023-11-30T02:09:05.231Z,26.00
2023-11-30T02:10:07.268Z,30.50
2023-11-30T02:11:09.771Z,29.00
2023-11-30T02:12:11.378Z,30.75
2023-11-30T02:13:13.847Z,27.25
2023-11-30T02:14:15.293Z,30.50
2023-11-30T02:15:17.761Z,28.50
2023-11-30T02:16:19.273Z,27.50
2023-11-30T02:17:21.964Z,29.50
2023-11-30T02:18:23.567Z,27.00
2023-11-30T02:19:26.092Z,27.50
2023-11-30T02:20:27.529Z,24.50
2023-11-30T02:21:29.970Z,27.50
2023-11-30T02:22:32.927Z,29.00
2023-11-30T02:23:35.341Z,28.00
2023-11-30T02:24:36.799Z,28.00
2023-11-30T02:25:39.185Z,30.00
2023-11-30T02:26:40.612Z,30.75
2023-11-30T02:27:44.323Z,32.00
2023-11-30T02:28:45.751Z,30.75
2023-11-30T02:29:48.168Z,35.25
2023-11-30T02:30:50.841Z,37.25
2023-11-30T02:31:53.672Z,35.75
2023-11-30T02:32:55.266Z,42.25
2023-11-30T02:33:57.764Z,40.75
2023-11-30T02:34:59.203Z,33.25
2023-11-30T02:36:01.625Z,42.25
2023-11-30T02:37:03.236Z,37.50
2023-11-30T02:38:07.132Z,42.50
2023-11-30T02:39:08.632Z,41.00
2023-11-30T02:40:11.719Z,40.75
2023-11-30T02:41:13.227Z,36.50
2023-11-30T02:42:14.947Z,35.00
2023-11-30T02:43:17.499Z,37.50
2023-11-30T02:44:18.925Z,35.25
2023-11-30T02:45:21.375Z,43.50
2023-11-30T02:46:23.006Z,48.00
2023-11-30T02:47:25.551Z,50.50
2023-11-30T02:48:27.290Z,48.00
2023-11-30T02:49:29.737Z,39.50
2023-11-30T02:50:31.182Z,42.25
2023-11-30T02:51:33.654Z,40.00
2023-11-30T02:52:35.102Z,36.75
2023-11-30T02:53:39.109Z,32.00
2023-11-30T02:54:40.550Z,34.75
2023-11-30T02:55:43.001Z,30.50
2023-11-30T02:56:44.450Z,34.00
2023-11-30T02:57:45.903Z,32.00
2023-11-30T02:58:48.639Z,31.50
2023-11-30T02:59:50.086Z,29.25
2023-11-30T03:00:52.535Z,27.75
2023-11-30T03:01:54.129Z,30.25
2023-11-30T03:02:56.629Z,30.00
2023-11-30T03:03:58.490Z,27.00
2023-11-30T03:05:00.932Z,27.50
2023-11-30T03:06:02.459Z,31.75
2023-11-30T03:07:05.003Z,25.00
2023-11-30T03:08:06.451Z,29.25
2023-11-30T03:09:10.448Z,30.25
2023-11-30T03:10:11.904Z,31.50
2023-11-30T03:11:14.400Z,30.50
2023-11-30T03:12:15.894Z,30.75
2023-11-30T03:13:18.346Z,31.75
2023-11-30T03:14:20.354Z,28.25
2023-11-30T03:15:23.314Z,27.00
2023-11-30T03:16:24.910Z,28.25
2023-11-30T03:17:27.424Z,28.75
2023-11-30T03:18:29.130Z,23.75
2023-11-30T03:19:32.048Z,27.25
2023-11-30T03:20:36.799Z,29.50
2023-11-30T03:21:38.263Z,29.50
2023-11-30T03:22:40.689Z,30.00
2023-11-30T03:23:42.171Z,32.00
2023-11-30T03:24:46.014Z,33.75
2023-11-30T03:25:47.472Z,38.50
2023-11-30T03:26:49.897Z,32.75
2023-11-30T03:27:51.337Z,33.00
2023-11-30T03:28:53.749Z,34.00
2023-11-30T03:29:55.363Z,35.50
2023-11-30T03:30:57.809Z,36.25
2023-11-30T03:31:59.285Z,35.25
2023-11-30T03:33:01.788Z,34.00
2023-11-30T03:34:03.330Z,33.75
2023-11-30T03:35:06.408Z,31.75
2023-11-30T03:36:08.398Z,29.75
2023-11-30T03:37:10.964Z,36.00
2023-11-30T03:38:12.480Z,32.25
2023-11-30T03:39:14.036Z,35.25
2023-11-30T03:40:18.145Z,36.00
2023-11-30T03:41:19.593Z,35.25
2023-11-30T03:42:22.048Z,34.25
2023-11-30T03:43:23.521Z,32.75
2023-11-30T03:44:25.944Z,38.75
2023-11-30T03:45:27.710Z,38.50
2023-11-30T03:46:30.401Z,37.50
2023-11-30T03:47:31.988Z,41.25
2023-11-30T03:48:34.476Z,36.75
2023-11-30T03:49:35.917Z,32.75
2023-11-30T03:50:38.594Z,32.50
2023-11-30T03:51:40.127Z,29.75
2023-11-30T03:52:42.648Z,29.75
2023-11-30T03:53:44.118Z,34.00
2023-11-30T03:54:46.560Z,32.50
2023-11-30T03:55:49.531Z,31.25
2023-11-30T03:56:51.955Z,29.75
2023-11-30T03:57:53.402Z,28.00
2023-11-30T03:58:55.825Z,28.75
2023-11-30T03:59:57.378Z,32.25
2023-11-30T04:00:59.923Z,31.25
2023-11-30T04:02:01.414Z,29.75
2023-11-30T04:03:03.985Z,30.25
2023-11-30T04:04:05.565Z,32.00
2023-11-30T04:05:08.558Z,27.50
2023-11-30T04:06:10.301Z,28.75
2023-11-30T04:07:12.732Z,35.25
2023-11-30T04:08:14.173Z,30.75
2023-11-30T04:09:19.600Z,31.50
2023-11-30T04:10:21.329Z,27.25
2023-11-30T04:11:25.536Z,30.50
2023-11-30T04:12:27.052Z,25.50
2023-11-30T04:13:29.925Z,30.00
2023-11-30T04:14:31.360Z,29.75
2023-11-30T04:15:32.905Z,25.75
2023-11-30T04:16:35.909Z,31.75
2023-11-30T04:17:37.636Z,24.50
2023-11-30T04:18:40.119Z,31.25
2023-11-30T04:19:42.877Z,25.00
2023-11-30T04:20:45.304Z,28.00
2023-11-30T04:21:47.153Z,26.75
2023-11-30T04:22:49.600Z,27.00
2023-11-30T04:23:51.037Z,26.50
2023-11-30T04:24:53.476Z,23.00
2023-11-30T04:25:54.926Z,26.00
2023-11-30T04:26:58.995Z,27.50
2023-11-30T04:28:00.481Z,27.25
2023-11-30T04:29:03.015Z,30.25
2023-11-30T04:30:04.877Z,30.50
2023-11-30T04:31:06.711Z,26.25
2023-11-30T04:32:09.414Z,28.00
2023-11-30T04:33:11.254Z,25.00
2023-11-30T04:34:13.751Z,23.25
2023-11-30T04:35:15.191Z,28.75
2023-11-30T04:36:17.719Z,31.00
2023-11-30T04:37:19.392Z,27.50
2023-11-30T04:38:21.862Z,29.75
2023-11-30T04:39:23.334Z,26.75
2023-11-30T04:40:25.769Z,27.00
2023-11-30T04:41:27.206Z,30.00
2023-11-30T04:42:31.247Z,30.25
2023-11-30T04:43:32.719Z,32.75
2023-11-30T04:44:35.169Z,30.00
2023-11-30T04:45:36.716Z,32.75
2023-11-30T04:46:39.170Z,27.50
2023-11-30T04:47:40.763Z,28.50
2023-11-30T04:48:43.305Z,27.00
2023-11-30T04:49:44.964Z,31.00
2023-11-30T04:50:47.404Z,24.50
2023-11-30T04:51:49.015Z,31.50
2023-11-30T04:52:51.704Z,35.25
2023-11-30T04:53:53.153Z,26.00
2023-11-30T04:54:55.594Z,27.00
2023-11-30T04:55:57.053Z,27.50
2023-11-30T04:57:00.343Z,29.75
2023-11-30T04:58:03.334Z,33.75
2023-11-30T04:59:05.791Z,37.00
2023-11-30T05:00:07.946Z,30.00
2023-11-30T05:01:10.418Z,18.25
2023-11-30T05:02:11.970Z,23.50
2023-11-30T05:03:14.716Z,18.75
2023-11-30T05:04:16.383Z,20.50
2023-11-30T05:05:18.945Z,22.25
2023-11-30T05:06:20.398Z,16.25
2023-11-30T05:07:22.850Z,16.75
2023-11-30T05:08:24.324Z,22.50
2023-11-30T05:09:27.040Z,23.50
2023-11-30T05:10:28.480Z,22.25
2023-11-30T05:11:31.118Z,19.50
2023-11-30T05:12:32.607Z,24.25
2023-11-30T05:13:36.596Z,21.75
2023-11-30T05:14:38.026Z,26.00
2023-11-30T05:15:41.000Z,31.00
2023-11-30T05:16:42.596Z,25.25
2023-11-30T05:17:45.080Z,28.00
2023-11-30T05:18:46.725Z,33.75
2023-11-30T05:19:49.206Z,33.75
2023-11-30T05:20:50.666Z,43.00
2023-11-30T05:21:53.159Z,38.50
2023-11-30T05:22:54.609Z,39.25
2023-11-30T05:23:57.247Z,44.50
2023-11-30T05:24:58.699Z,41.75
2023-11-30T05:26:00.403Z,40.50
2023-11-30T05:27:02.912Z,37.75
2023-11-30T05:28:06.954Z,39.50
2023-11-30T05:29:10.835Z,40.25
2023-11-30T05:30:13.013Z,33.00
2023-11-30T05:31:15.734Z,27.75
2023-11-30T05:32:17.812Z,32.75
2023-11-30T05:33:20.297Z,34.00
2023-11-30T05:34:21.928Z,32.50
2023-11-30T05:35:24.739Z,34.75
2023-11-30T05:36:26.241Z,29.75
2023-11-30T05:37:28.690Z,31.00
2023-11-30T05:38:30.124Z,26.25
2023-11-30T05:39:32.966Z,23.75
2023-11-30T05:40:34.514Z,21.75
2023-11-30T05:41:36.941Z,24.00
2023-11-30T05:42:38.372Z,20.00
2023-11-30T05:43:41.541Z,19.50
2023-11-30T05:44:44.444Z,16.00
2023-11-30T05:45:46.952Z,20.00
2023-11-30T05:46:49.254Z,18.25
2023-11-30T05:47:51.733Z,21.50
2023-11-30T05:48:54.950Z,19.50
2023-11-30T05:49:57.646Z,19.25
2023-11-30T05:50:59.122Z,20.25
2023-11-30T05:52:01.562Z,20.75
2023-11-30T05:53:03.015Z,21.75
2023-11-30T05:54:06.215Z,22.75
2023-11-30T05:55:08.859Z,21.25
2023-11-30T05:56:11.532Z,17.00
2023-11-30T05:57:13.008Z,21.00
2023-11-30T05:58:15.483Z,22.75
2023-11-30T05:59:16.923Z,18.00
2023-11-30T06:00:21.738Z,24.00
2023-11-30T06:01:23.238Z,27.25
2023-11-30T06:02:24.712Z,22.25
2023-11-30T06:03:27.302Z,24.25
2023-11-30T06:04:29.048Z,21.75
2023-11-30T06:05:31.692Z,25.50
2023-11-30T06:06:33.184Z,25.00
2023-11-30T06:07:35.649Z,19.75
2023-11-30T06:08:37.113Z,21.00
2023-11-30T06:09:39.545Z,26.00
2023-11-30T06:10:41.165Z,25.00
2023-11-30T06:11:43.666Z,23.00
2023-11-30T06:12:45.131Z,19.00
2023-11-30T06:13:46.592Z,18.50
2023-11-30T06:14:49.008Z,22.50
2023-11-30T06:15:53.609Z,20.00
2023-11-30T06:16:56.063Z,27.50
2023-11-30T06:17:57.577Z,26.75
2023-11-30T06:19:00.067Z,23.50
2023-11-30T06:20:03.929Z,27.25
2023-11-30T06:21:10.776Z,25.50
2023-11-30T06:22:12.314Z,25.75
2023-11-30T06:23:14.807Z,22.00
2023-11-30T06:24:16.264Z,21.50
2023-11-30T06:25:18.698Z,18.50
2023-11-30T06:26:20.260Z,19.25
2023-11-30T06:27:21.713Z,19.50
2023-11-30T06:28:24.164Z,16.50
2023-11-30T06:29:25.680Z,19.50
2023-11-30T06:30:28.244Z,25.25
2023-11-30T06:31:32.425Z,23.00
2023-11-30T06:32:34.003Z,27.00
2023-11-30T06:33:36.499Z,19.75
2023-11-30T06:34:39.752Z,21.50
2023-11-30T06:35:42.489Z,22.00
2023-11-30T06:36:44.153Z,17.00
2023-11-30T06:37:46.605Z,22.00
2023-11-30T06:38:48.062Z,18.25
2023-11-30T06:39:50.519Z,20.25
2023-11-30T06:40:51.968Z,19.75
2023-11-30T06:41:54.475Z,20.25
2023-11-30T06:42:56.029Z,16.00
2023-11-30T06:43:58.443Z,18.50
2023-11-30T06:44:59.997Z,22.25
2023-11-30T06:46:02.466Z,19.00
2023-11-30T06:47:07.742Z,21.75
2023-11-30T06:48:10.352Z,24.75
2023-11-30T06:49:11.864Z,26.00
2023-11-30T06:50:14.518Z,21.75
2023-11-30T06:51:16.000Z,22.25
2023-11-30T06:52:18.801Z,21.75
2023-11-30T06:53:20.427Z,18.25
2023-11-30T06:54:23.471Z,18.75
2023-11-30T06:55:25.007Z,18.75
2023-11-30T06:56:27.433Z,18.00
2023-11-30T06:57:28.927Z,19.75
2023-11-30T06:58:31.358Z,21.25
2023-11-30T06:59:34.229Z,19.75
2023-11-30T07:00:36.270Z,20.50
2023-11-30T07:01:38.721Z,23.25
2023-11-30T07:02:41.694Z,22.00
2023-11-30T07:03:45.965Z,24.75
2023-11-30T07:04:47.690Z,24.50
2023-11-30T07:05:50.219Z,27.00
2023-11-30T07:06:51.644Z,27.00
2023-11-30T07:07:54.246Z,33.75
2023-11-30T07:08:55.705Z,25.25
2023-11-30T07:09:58.149Z,27.00
2023-11-30T07:10:59.603Z,23.00
2023-11-30T07:12:02.038Z,23.75
2023-11-30T07:13:03.723Z,25.75
2023-11-30T07:14:05.236Z,21.50
2023-11-30T07:15:08.524Z,27.00
2023-11-30T07:16:10.713Z,26.00
2023-11-30T07:17:13.156Z,27.00
2023-11-30T07:18:16.214Z,30.75
2023-11-30T07:19:18.691Z,31.75
2023-11-30T07:20:20.174Z,26.75
2023-11-30T07:21:22.662Z,22.50
2023-11-30T07:22:25.797Z,23.00
2023-11-30T07:23:28.439Z,24.75
2023-11-30T07:24:29.906Z,21.75
2023-11-30T07:25:32.356Z,21.25
2023-11-30T07:26:33.810Z,22.00
2023-11-30T07:27:36.288Z,20.50
2023-11-30T07:28:37.935Z,21.25
2023-11-30T07:29:40.523Z,26.75
2023-11-30T07:30:43.168Z,25.25
2023-11-30T07:31:46.415Z,27.50
2023-11-30T07:32:47.930Z,23.75
2023-11-30T07:33:51.955Z,25.25
2023-11-30T07:34:53.773Z,23.00
2023-11-30T07:35:56.228Z,25.00
2023-11-30T07:36:57.684Z,27.00
2023-11-30T07:38:00.116Z,26.25
2023-11-30T07:39:01.730Z,23.50
2023-11-30T07:40:04.734Z,28.00
2023-11-30T07:41:06.620Z,28.75
2023-11-30T07:42:09.099Z,31.00
2023-11-30T07:43:10.600Z,30.00
2023-11-30T07:44:13.898Z,28.00
2023-11-30T07:45:15.352Z,25.25
2023-11-30T07:46:18.112Z,29.25
2023-11-30T07:47:19.970Z,23.00
2023-11-30T07:48:23.005Z,25.25
2023-11-30T07:49:26.109Z,26.50
2023-11-30T07:50:29.389Z,21.25
2023-11-30T07:51:31.046Z,25.00
2023-11-30T07:52:36.509Z,20.50
2023-11-30T07:53:37.971Z,26.25
2023-11-30T07:54:39.542Z,23.00
2023-11-30T07:55:42.017Z,23.00
2023-11-30T07:56:43.458Z,28.75
2023-11-30T07:57:44.876Z,27.75
2023-11-30T07:58:47.293Z,25.50
2023-11-30T07:59:49.169Z,21.25
2023-11-30T08:00:51.898Z,20.50
2023-11-30T08:01:53.361Z,22.75
2023-11-30T08:02:56.021Z,26.00
2023-11-30T08:03:57.645Z,25.75
2023-11-30T08:05:01.757Z,27.00
2023-11-30T08:06:03.385Z,26.50
2023-11-30T08:07:05.951Z,32.25
2023-11-30T08:08:07.801Z,32.50
2023-11-30T08:09:10.602Z,31.25
2023-11-30T08:10:12.246Z,30.75
2023-11-30T08:11:15.618Z,27.75
2023-11-30T08:12:17.105Z,27.75
2023-11-30T08:13:21.068Z,21.50
2023-11-30T08:14:22.512Z,22.00
2023-11-30T08:15:25.078Z,26.75
2023-11-30T08:16:27.152Z,23.75
2023-11-30T08:17:29.847Z,25.50
2023-11-30T08:18:33.093Z,22.25
2023-11-30T08:19:35.625Z,20.00
2023-11-30T08:20:38.523Z,23.75
2023-11-30T08:21:42.119Z,20.75
2023-11-30T08:22:43.578Z,21.75
2023-11-30T08:23:46.022Z,17.50
2023-11-30T08:24:47.586Z,17.00
2023-11-30T08:25:50.796Z,16.50
2023-11-30T08:26:52.318Z,19.75
2023-11-30T08:27:55.156Z,16.00
2023-11-30T08:28:56.834Z,17.50
2023-11-30T08:30:00.059Z,23.25
2023-11-30T08:31:05.931Z,21.75
2023-11-30T08:32:07.458Z,21.50
2023-11-30T08:33:10.438Z,20.00
2023-11-30T08:34:12.232Z,18.25
2023-11-30T08:35:13.728Z,19.75
2023-11-30T08:36:17.714Z,18.00
2023-11-30T08:37:19.534Z,18.25
2023-11-30T08:38:23.992Z,18.00
2023-11-30T08:39:25.665Z,19.75
2023-11-30T08:40:28.170Z,19.00
2023-11-30T08:41:30.028Z,15.75
2023-11-30T08:42:32.545Z,17.50
2023-11-30T08:43:34.137Z,21.00
2023-11-30T08:44:36.845Z,18.50
2023-11-30T08:45:38.322Z,23.00
2023-11-30T08:46:41.039Z,22.75
2023-11-30T08:47:43.317Z,25.50
2023-11-30T08:48:46.348Z,19.75
2023-11-30T08:49:47.850Z,21.00
2023-11-30T08:50:50.356Z,22.25
2023-11-30T08:51:53.807Z,23.25
2023-11-30T08:52:56.450Z,21.25
2023-11-30T08:53:58.027Z,21.50
2023-11-30T08:55:01.515Z,27.25
2023-11-30T08:56:03.035Z,20.25
2023-11-30T08:57:06.259Z,21.00
2023-11-30T08:58:07.737Z,23.75
2023-11-30T08:59:10.196Z,23.25
2023-11-30T09:00:13.075Z,18.25
2023-11-30T09:01:15.573Z,20.50
2023-11-30T09:02:17.575Z,18.50
2023-11-30T09:03:20.299Z,20.00
2023-11-30T09:04:21.819Z,20.25
2023-11-30T09:05:24.808Z,20.50
2023-11-30T09:06:26.661Z,25.00
2023-11-30T09:07:31.787Z,28.50
2023-11-30T09:08:34.746Z,31.25
2023-11-30T09:09:39.564Z,31.25
2023-11-30T09:10:42.709Z,26.25
2023-11-30T09:11:45.792Z,35.00
2023-11-30T09:12:47.571Z,30.00
2023-11-30T09:13:50.010Z,35.50
2023-11-30T09:14:51.653Z,30.25
2023-11-30T09:15:54.149Z,28.75
2023-11-30T09:16:55.662Z,28.75
2023-11-30T09:17:59.524Z,31.50
2023-11-30T09:19:01.995Z,30.25
2023-11-30T09:20:04.151Z,19.75
2023-11-30T09:21:07.158Z,23.00
2023-11-30T09:22:08.957Z,23.50
2023-11-30T09:23:12.908Z,21.00
2023-11-30T09:24:16.292Z,24.50
2023-11-30T09:25:18.764Z,22.50
2023-11-30T09:26:21.088Z,18.25
2023-11-30T09:27:23.539Z,22.25
2023-11-30T09:28:25.452Z,18.00
2023-11-30T09:29:28.052Z,17.25
2023-11-30T09:30:29.593Z,19.25
2023-11-30T09:31:32.180Z,22.00
2023-11-30T09:32:33.707Z,25.75
2023-11-30T09:33:35.329Z,31.00
2023-11-30T09:34:37.806Z,29.75
2023-11-30T09:35:39.284Z,21.50
2023-11-30T09:36:41.799Z,23.75
2023-11-30T09:37:43.788Z,22.25
2023-11-30T09:38:49.481Z,20.75
2023-11-30T09:39:50.969Z,17.00
2023-11-30T09:40:53.542Z,20.75
2023-11-30T09:41:58.670Z,26.75
2023-11-30T09:43:01.170Z,21.50
2023-11-30T09:44:03.304Z,23.50
2023-11-30T09:45:06.476Z,24.75
2023-11-30T09:46:08.241Z,21.00
2023-11-30T09:47:10.753Z,23.25
2023-11-30T09:48:12.281Z,20.50
2023-11-30T09:49:14.765Z,24.00
2023-11-30T09:50:17.016Z,22.75
2023-11-30T09:51:21.363Z,25.25
2023-11-30T09:52:22.855Z,33.50
2023-11-30T09:53:25.285Z,28.25
2023-11-30T09:54:28.089Z,38.25
2023-11-30T09:55:30.833Z,30.75
2023-11-30T09:56:32.631Z,27.00
2023-11-30T09:57:35.313Z,21.25
2023-11-30T09:58:38.579Z,19.50
2023-11-30T09:59:41.012Z,20.75
2023-11-30T10:00:42.901Z,19.00
2023-11-30T10:01:45.452Z,21.00
2023-11-30T10:02:53.397Z,24.75
2023-11-30T10:03:55.936Z,22.00
2023-11-30T10:04:58.046Z,24.75
2023-11-30T10:06:00.711Z,20.75
2023-11-30T10:07:03.408Z,21.25
2023-11-30T10:08:05.923Z,24.50
2023-11-30T10:09:08.885Z,22.50
2023-11-30T10:10:12.717Z,18.75
2023-11-30T10:11:14.274Z,24.00
2023-11-30T10:12:20.937Z,21.25
2023-11-30T10:13:22.528Z,23.75
2023-11-30T10:14:25.007Z,21.00
2023-11-30T10:15:27.087Z,22.50
2023-11-30T10:16:29.767Z,21.25
2023-11-30T10:17:31.337Z,22.25
2023-11-30T10:18:34.538Z,21.75
2023-11-30T10:19:36.255Z,22.75
2023-11-30T10:20:39.175Z,26.25
2023-11-30T10:21:41.040Z,20.00
2023-11-30T10:22:43.532Z,35.50
2023-11-30T10:23:45.325Z,47.50
2023-11-30T10:24:47.797Z,36.50
2023-11-30T10:25:50.609Z,32.00
2023-11-30T10:26:53.391Z,27.00
2023-11-30T10:27:54.864Z,24.50
2023-11-30T10:28:57.332Z,31.75
2023-11-30T10:30:00.095Z,30.50
2023-11-30T10:31:04.407Z,27.75
2023-11-30T10:32:07.017Z,26.25
2023-11-30T10:33:10.381Z,23.25
2023-11-30T10:34:13.003Z,27.00
2023-11-30T10:35:16.460Z,19.00
2023-11-30T10:36:18.005Z,22.25
2023-11-30T10:37:21.702Z,24.00
2023-11-30T10:38:25.294Z,22.75
2023-11-30T10:39:27.853Z,27.50
2023-11-30T10:40:29.384Z,20.00
2023-11-30T10:41:36.495Z,19.25
2023-11-30T10:42:38.638Z,19.25
2023-11-30T10:43:42.702Z,17.00
2023-11-30T10:44:44.241Z,18.75
2023-11-30T10:45:46.757Z,22.00
2023-11-30T10:46:48.268Z,22.25
2023-11-30T10:47:50.839Z,21.75
2023-11-30T10:48:52.533Z,23.25
2023-11-30T10:49:54.975Z,20.75
2023-11-30T10:50:56.406Z,21.75
2023-11-30T10:52:03.117Z,20.75
2023-11-30T10:53:05.496Z,23.00
2023-11-30T10:54:09.560Z,25.25
2023-11-30T10:55:11.608Z,20.25
2023-11-30T10:56:14.663Z,20.25
2023-11-30T10:57:18.793Z,21.00
2023-11-30T10:58:23.280Z,20.50
2023-11-30T10:59:26.156Z,19.50
2023-11-30T11:00:33.813Z,19.50
2023-11-30T11:01:35.551Z,17.50
2023-11-30T11:02:38.992Z,19.00
2023-11-30T11:03:45.614Z,18.75
2023-11-30T11:04:48.261Z,19.25
2023-11-30T11:05:51.235Z,18.00
2023-11-30T11:07:01.745Z,16.75
2023-11-30T11:08:03.457Z,16.50
2023-11-30T11:09:08.629Z,13.75
2023-11-30T11:10:10.579Z,16.00
2023-11-30T11:11:13.189Z,15.25
2023-11-30T11:12:19.913Z,17.75
2023-11-30T11:13:22.989Z,16.50
2023-11-30T11:14:30.096Z,16.75
2023-11-30T11:15:33.270Z,17.00
2023-11-30T11:16:35.840Z,18.00
2023-11-30T11:17:46.203Z,18.00
2023-11-30T11:18:47.658Z,21.75
2023-11-30T11:19:50.257Z,13.75
2023-11-30T11:20:51.709Z,16.50
2023-11-30T11:21:54.156Z,19.00
2023-11-30T11:22:55.756Z,21.75
2023-11-30T11:24:01.817Z,21.75
2023-11-30T11:25:03.608Z,27.00
2023-11-30T11:26:06.426Z,19.25
2023-11-30T11:27:07.895Z,23.25
2023-11-30T11:28:12.440Z,24.00
2023-11-30T11:29:15.406Z,20.50
2023-11-30T11:30:19.077Z,23.50
2023-11-30T11:31:20.637Z,20.75
2023-11-30T11:32:25.881Z,15.00
2023-11-30T11:33:27.588Z,19.00
2023-11-30T11:34:31.622Z,16.75
2023-11-30T11:35:34.204Z,20.00
2023-11-30T11:36:36.061Z,19.00
2023-11-30T11:37:38.525Z,15.00
2023-11-30T11:38:39.967Z,17.00
2023-11-30T11:39:43.084Z,17.50
2023-11-30T11:40:44.602Z,19.25
2023-11-30T11:41:47.555Z,17.50
2023-11-30T11:42:49.024Z,19.25
2023-11-30T11:43:52.838Z,19.00
2023-11-30T11:44:54.341Z,19.00
2023-11-30T11:45:57.201Z,15.00
2023-11-30T11:46:58.993Z,17.75
2023-11-30T11:48:01.535Z,19.25
2023-11-30T11:49:04.066Z,15.75
2023-11-30T11:50:08.040Z,18.25
2023-11-30T11:51:10.924Z,19.75
2023-11-30T11:52:19.951Z,22.25
2023-11-30T11:53:21.473Z,20.00
2023-11-30T11:54:24.331Z,24.00
2023-11-30T11:55:25.868Z,23.25
2023-11-30T11:56:28.463Z,20.75
2023-11-30T11:57:33.434Z,20.75
2023-11-30T11:58:36.215Z,24.25
2023-11-30T11:59:39.091Z,23.75
2023-11-30T12:00:41.594Z,20.75
2023-11-30T12:01:43.392Z,19.75
2023-11-30T12:02:46.136Z,22.50
2023-11-30T12:03:48.361Z,21.75
2023-11-30T12:04:50.876Z,19.00
2023-11-30T12:05:52.441Z,20.50
2023-11-30T12:06:54.246Z,19.25
2023-11-30T12:07:57.121Z,17.00
2023-11-30T12:09:10.101Z,18.50
2023-11-30T12:10:13.923Z,18.75
2023-11-30T12:11:17.551Z,17.25
2023-11-30T12:12:20.918Z,19.00
2023-11-30T12:13:22.961Z,19.00
2023-11-30T12:14:25.403Z,13.75
2023-11-30T12:15:28.439Z,15.00
2023-11-30T12:16:31.027Z,13.00
2023-11-30T12:17:32.717Z,15.00
2023-11-30T12:18:35.421Z,13.75
2023-11-30T12:19:36.900Z,16.50
2023-11-30T12:20:40.237Z,17.75
2023-11-30T12:21:41.715Z,15.50
2023-11-30T12:22:43.299Z,15.00
2023-11-30T12:23:45.744Z,17.00
2023-11-30T12:24:47.243Z,15.00
2023-11-30T12:25:49.700Z,17.00
2023-11-30T12:26:51.147Z,20.75
2023-11-30T12:27:54.359Z,22.00
2023-11-30T12:28:56.203Z,24.75
2023-11-30T12:29:58.704Z,28.50
2023-11-30T12:31:01.703Z,25.75
2023-11-30T12:32:04.241Z,25.00
2023-11-30T12:33:06.146Z,23.25
2023-11-30T12:34:10.171Z,23.75
2023-11-30T12:35:11.761Z,17.50
2023-11-30T12:36:15.253Z,19.00
2023-11-30T12:37:16.725Z,18.50
2023-11-30T12:38:19.196Z,19.25
2023-11-30T12:39:20.708Z,18.50
2023-11-30T12:40:22.271Z,18.00
2023-11-30T12:41:24.806Z,17.25
2023-11-30T12:42:27.660Z,17.00
2023-11-30T12:43:30.133Z,20.25
2023-11-30T12:44:31.559Z,16.50
2023-11-30T12:45:34.028Z,20.75
2023-11-30T12:46:37.083Z,19.75
2023-11-30T12:47:41.403Z,20.00
2023-11-30T12:48:44.231Z,20.25
2023-11-30T12:49:48.761Z,18.50
2023-11-30T12:50:51.591Z,20.50
2023-11-30T12:51:54.090Z,20.50
2023-11-30T12:52:56.478Z,19.00
2023-11-30T12:53:58.971Z,22.00
2023-11-30T12:55:00.595Z,19.00
2023-11-30T12:56:03.359Z,24.00
2023-11-30T12:57:05.031Z,19.25
2023-11-30T12:58:07.479Z,31.00
2023-11-30T12:59:08.981Z,21.00
2023-11-30T13:00:15.963Z,22.75
2023-11-30T13:01:18.400Z,22.25
2023-11-30T13:02:23.496Z,20.50
2023-11-30T13:03:27.243Z,22.75
2023-11-30T13:04:29.856Z,19.50
2023-11-30T13:05:31.331Z,15.25
2023-11-30T13:06:33.843Z,20.25
2023-11-30T13:07:35.693Z,20.75
2023-11-30T13:08:38.245Z,19.75
2023-11-30T13:09:41.377Z,17.00
2023-11-30T13:10:43.842Z,20.00
2023-11-30T13:11:46.122Z,22.00
2023-11-30T13:12:49.071Z,21.00
2023-11-30T13:13:51.851Z,19.50
2023-11-30T13:14:57.219Z,18.75
2023-11-30T13:16:01.919Z,21.25
2023-11-30T13:17:05.810Z,22.50
2023-11-30T13:18:08.742Z,24.25
2023-11-30T13:19:11.530Z,29.75
2023-11-30T13:20:14.665Z,26.25
2023-11-30T13:21:17.911Z,26.25
2023-11-30T13:22:20.283Z,21.50
2023-11-30T13:23:22.748Z,15.50
2023-11-30T13:24:24.244Z,17.50